createdAt,value
2022-08-28T00:01:05.045Z,9.82
2022-08-28T00:04:07.834Z,7.28
2022-08-28T00:07:11.781Z,9.47
2022-08-28T00:10:16.973Z,7.78
2022-08-28T00:13:25.433Z,6.28
2022-08-28T00:16:28.224Z,8.05
2022-08-28T00:19:33.479Z,9.63
2022-08-28T00:22:39.351Z,7.00
2022-08-28T00:25:42.366Z,8.00
2022-08-28T00:28:45.350Z,9.25
2022-08-28T00:31:48.176Z,8.48
2022-08-28T00:34:50.862Z,8.57
2022-08-28T00:37:55.339Z,9.27
2022-08-28T00:41:04.061Z,9.05
2022-08-28T00:44:12.626Z,10.13
2022-08-28T00:47:15.408Z,7.10
2022-08-28T00:50:20.671Z,8.80
2022-08-28T00:53:23.553Z,8.87
2022-08-28T00:56:33.616Z,9.20
2022-08-28T00:59:38.466Z,10.15
2022-08-28T01:02:41.659Z,9.48
2022-08-28T01:05:48.170Z,8.93
2022-08-28T01:08:52.579Z,9.43
2022-08-28T01:12:02.048Z,11.45
2022-08-28T01:15:10.527Z,10.63
2022-08-28T01:18:16.485Z,10.10
2022-08-28T01:21:26.636Z,10.50
2022-08-28T01:24:32.307Z,9.93
2022-08-28T01:27:35.049Z,10.07
2022-08-28T01:30:37.856Z,8.85
2022-08-28T01:33:41.394Z,10.15
2022-08-28T01:36:46.248Z,9.93
2022-08-28T01:39:50.609Z,11.30
2022-08-28T01:42:53.744Z,11.13
2022-08-28T01:46:02.341Z,12.55
2022-08-28T01:49:05.244Z,13.38
2022-08-28T01:52:09.516Z,10.90
2022-08-28T01:55:15.824Z,11.20
2022-08-28T01:58:25.199Z,11.35
2022-08-28T02:01:30.554Z,12.57
2022-08-28T02:04:33.928Z,10.45
2022-08-28T02:07:36.888Z,13.55
2022-08-28T02:10:44.590Z,10.50
2022-08-28T02:13:47.344Z,10.55
2022-08-28T02:16:53.636Z,9.02
2022-08-28T02:19:56.462Z,10.75
2022-08-28T02:22:59.473Z,13.45
2022-08-28T02:26:03.714Z,10.57
2022-08-28T02:29:06.790Z,10.70
2022-08-28T02:32:09.456Z,11.05
2022-08-28T02:35:13.877Z,9.80
2022-08-28T02:38:17.099Z,9.20
2022-08-28T02:41:23.330Z,10.40
2022-08-28T02:44:25.988Z,8.57
2022-08-28T02:47:29.180Z,10.95
2022-08-28T02:50:32.175Z,11.45
2022-08-28T02:53:35.149Z,9.00
2022-08-28T02:56:39.297Z,8.57
2022-08-28T02:59:43.499Z,9.95
2022-08-28T03:02:46.917Z,8.65
2022-08-28T03:05:49.943Z,9.57
2022-08-28T03:08:52.578Z,9.00
2022-08-28T03:11:56.969Z,8.57
2022-08-28T03:14:59.813Z,10.15
2022-08-28T03:18:02.558Z,8.55
2022-08-28T03:21:11.371Z,9.57
2022-08-28T03:24:15.157Z,8.95
2022-08-28T03:27:19.777Z,12.33
2022-08-28T03:30:23.909Z,6.60
2022-08-28T03:33:27.511Z,7.97
2022-08-28T03:36:31.481Z,9.98
2022-08-28T03:39:34.234Z,7.32
2022-08-28T03:42:38.735Z,7.00
2022-08-28T03:45:42.405Z,6.72
2022-08-28T03:48:46.122Z,9.60
2022-08-28T03:51:49.097Z,8.32
2022-08-28T03:54:52.057Z,9.07
2022-08-28T03:57:56.465Z,9.30
2022-08-28T04:00:59.130Z,8.75
2022-08-28T04:04:02.192Z,7.95
2022-08-28T04:07:04.847Z,9.73
2022-08-28T04:10:09.005Z,7.82
2022-08-28T04:13:14.977Z,7.20
2022-08-28T04:16:19.666Z,7.07
2022-08-28T04:19:22.538Z,7.85
2022-08-28T04:22:25.322Z,8.68
2022-08-28T04:25:28.361Z,9.63
2022-08-28T04:28:32.987Z,6.27
2022-08-28T04:31:36.447Z,9.70
2022-08-28T04:34:39.503Z,9.48
2022-08-28T04:37:43.788Z,7.50
2022-08-28T04:40:46.572Z,6.82
2022-08-28T04:43:52.822Z,8.97
2022-08-28T04:46:55.533Z,9.13
2022-08-28T04:50:02.393Z,10.38
2022-08-28T04:53:05.115Z,8.45
2022-08-28T04:56:11.448Z,8.00
2022-08-28T04:59:16.370Z,7.10
2022-08-28T05:02:19.257Z,6.25
2022-08-28T05:05:21.858Z,7.78
2022-08-28T05:08:27.877Z,6.60
2022-08-28T05:11:34.326Z,8.20
2022-08-28T05:14:40.013Z,8.27
2022-08-28T05:17:42.647Z,8.60
2022-08-28T05:20:47.843Z,9.13
2022-08-28T05:23:52.882Z,8.70
2022-08-28T05:26:56.954Z,9.25
2022-08-28T05:30:02.340Z,9.73
2022-08-28T05:33:05.301Z,10.35
2022-08-28T05:36:09.155Z,9.32
2022-08-28T05:39:14.761Z,8.68
2022-08-28T05:42:17.792Z,9.70
2022-08-28T05:45:22.653Z,10.87
2022-08-28T05:48:25.305Z,11.70
2022-08-28T05:51:34.460Z,9.20
2022-08-28T05:54:37.304Z,10.50
2022-08-28T05:57:39.994Z,11.43
2022-08-28T06:00:44.866Z,9.67
2022-08-28T06:03:55.214Z,11.63
2022-08-28T06:06:58.904Z,15.10
2022-08-28T06:10:01.945Z,12.38
2022-08-28T06:13:05.920Z,12.68
2022-08-28T06:16:14.037Z,11.73
2022-08-28T06:19:19.040Z,10.75
2022-08-28T06:22:23.590Z,12.55
2022-08-28T06:25:27.518Z,9.05
2022-08-28T06:28:31.098Z,10.25
2022-08-28T06:31:36.948Z,10.17
2022-08-28T06:34:40.618Z,8.25
2022-08-28T06:37:44.570Z,10.90
2022-08-28T06:40:50.439Z,8.73
2022-08-28T06:43:54.106Z,9.70
2022-08-28T06:46:59.500Z,10.13
2022-08-28T06:50:03.206Z,10.65
2022-08-28T06:53:07.256Z,11.48
2022-08-28T06:56:16.210Z,12.13
2022-08-28T06:59:31.031Z,13.38
2022-08-28T07:02:36.587Z,11.17
2022-08-28T07:05:40.374Z,13.40
2022-08-28T07:08:45.825Z,11.18
2022-08-28T07:11:48.692Z,10.32
2022-08-28T07:14:51.349Z,10.88
2022-08-28T07:17:55.367Z,8.37
2022-08-28T07:21:00.567Z,9.20
2022-08-28T07:24:05.182Z,10.48
2022-08-28T07:27:09.063Z,8.00
2022-08-28T07:30:13.126Z,10.55
2022-08-28T07:33:17.306Z,10.57
2022-08-28T07:36:29.055Z,9.55
2022-08-28T07:39:32.694Z,9.70
2022-08-28T07:42:55.106Z,11.82
2022-08-28T07:45:59.648Z,10.70
2022-08-28T07:49:03.800Z,12.67
2022-08-28T07:52:08.772Z,10.95
2022-08-28T07:55:11.443Z,8.30
2022-08-28T07:58:14.478Z,9.38
2022-08-28T08:01:18.020Z,10.65
2022-08-28T08:04:25.042Z,11.73
2022-08-28T08:07:28.839Z,8.60
2022-08-28T08:10:34.353Z,9.15
2022-08-28T08:13:39.259Z,10.95
2022-08-28T08:16:45.231Z,9.52
2022-08-28T08:19:49.354Z,10.93
2022-08-28T08:22:51.969Z,11.98
2022-08-28T08:25:56.210Z,10.95
2022-08-28T08:28:59.521Z,8.30
2022-08-28T08:32:06.096Z,9.25
2022-08-28T08:35:12.790Z,8.33
2022-08-28T08:38:15.746Z,12.23
2022-08-28T08:41:23.091Z,9.95
2022-08-28T08:44:33.544Z,8.27
2022-08-28T08:47:42.430Z,12.63
2022-08-28T08:50:46.640Z,8.23
2022-08-28T08:53:55.672Z,8.93
2022-08-28T08:56:58.413Z,9.13
2022-08-28T09:00:01.489Z,12.65
2022-08-28T09:03:08.318Z,9.30
2022-08-28T09:06:20.441Z,11.57
2022-08-28T09:09:30.378Z,8.93
2022-08-28T09:12:50.326Z,9.40
2022-08-28T09:15:52.989Z,11.95
2022-08-28T09:18:59.160Z,11.57
2022-08-28T09:22:03.449Z,13.07
2022-08-28T09:25:06.775Z,12.57
2022-08-28T09:28:10.536Z,12.52
2022-08-28T09:31:15.969Z,11.32
2022-08-28T09:34:26.875Z,10.10
2022-08-28T09:37:32.900Z,8.77
2022-08-28T09:40:49.629Z,10.70
2022-08-28T09:43:52.480Z,13.32
2022-08-28T09:46:55.277Z,12.65
2022-08-28T09:50:16.103Z,15.10
2022-08-28T09:53:22.851Z,11.67
2022-08-28T09:56:29.648Z,9.73
2022-08-28T09:59:32.804Z,12.85
2022-08-28T10:02:44.083Z,11.73
2022-08-28T10:05:59.256Z,10.60
2022-08-28T10:09:18.349Z,12.37
2022-08-28T10:12:34.346Z,11.40
2022-08-28T10:15:55.255Z,10.02
2022-08-28T10:19:06.758Z,11.10
2022-08-28T10:22:26.232Z,9.68
2022-08-28T10:25:40.081Z,10.90
2022-08-28T10:28:53.034Z,10.75
2022-08-28T10:32:04.710Z,11.15
2022-08-28T10:35:13.822Z,12.52
2022-08-28T10:38:21.537Z,13.27
2022-08-28T10:41:30.860Z,9.93
2022-08-28T10:44:39.828Z,9.40
2022-08-28T10:47:48.622Z,9.63
2022-08-28T10:50:54.476Z,8.70
2022-08-28T10:54:02.944Z,11.52
2022-08-28T10:57:19.016Z,10.97
2022-08-28T11:00:24.011Z,8.48
2022-08-28T11:03:36.682Z,10.82
2022-08-28T11:06:45.231Z,11.05
2022-08-28T11:09:50.183Z,9.63
2022-08-28T11:12:54.394Z,10.07
2022-08-28T11:15:57.295Z,10.70
2022-08-28T11:19:29.533Z,9.52
2022-08-28T11:22:38.281Z,11.82
2022-08-28T11:25:48.988Z,12.07
2022-08-28T11:28:53.667Z,8.47
2022-08-28T11:32:38.118Z,11.57
2022-08-28T11:35:53.375Z,9.73
2022-08-28T11:39:07.097Z,10.80
2022-08-28T11:42:35.757Z,8.77
2022-08-28T11:46:14.577Z,11.77
2022-08-28T11:49:40.267Z,8.40
2022-08-28T11:53:00.852Z,12.10
2022-08-28T11:56:31.809Z,8.70
2022-08-28T11:59:45.322Z,10.85
2022-08-28T12:02:53.411Z,9.17
2022-08-28T12:05:58.174Z,8.25
2022-08-28T12:09:08.267Z,12.60
2022-08-28T12:12:51.948Z,9.93
2022-08-28T12:16:05.245Z,9.38
2022-08-28T12:19:11.127Z,10.93
2022-08-28T12:22:16.180Z,9.88
2022-08-28T12:25:29.167Z,10.15
2022-08-28T12:28:34.305Z,10.93
2022-08-28T12:32:13.730Z,10.85
2022-08-28T12:35:21.771Z,11.63
2022-08-28T12:38:24.551Z,9.88
2022-08-28T12:41:28.247Z,10.05
2022-08-28T12:44:33.817Z,9.70
2022-08-28T12:47:37.966Z,10.77
2022-08-28T12:50:42.146Z,10.27
2022-08-28T12:53:47.818Z,8.98
2022-08-28T12:56:50.756Z,10.80
2022-08-28T13:00:07.592Z,9.23
2022-08-28T13:03:10.425Z,10.38
2022-08-28T13:06:14.848Z,8.53
2022-08-28T13:09:20.126Z,8.88
2022-08-28T13:12:37.813Z,11.85
2022-08-28T13:15:57.856Z,9.25
2022-08-28T13:19:13.478Z,8.40
2022-08-28T13:22:39.647Z,8.23
2022-08-28T13:25:42.326Z,9.50
2022-08-28T13:28:45.211Z,9.82
2022-08-28T13:31:57.542Z,7.55
2022-08-28T13:35:16.615Z,8.00
2022-08-28T13:38:22.305Z,7.23
2022-08-28T13:41:29.908Z,7.30
2022-08-28T13:44:46.369Z,7.97
2022-08-28T13:47:49.038Z,7.45
2022-08-28T13:50:57.734Z,7.70
2022-08-28T13:54:02.068Z,9.57
2022-08-28T13:57:05.553Z,10.48
2022-08-28T14:00:09.894Z,7.82
2022-08-28T14:03:30.268Z,8.75
2022-08-28T14:06:33.209Z,8.00
2022-08-28T14:09:38.488Z,8.53
2022-08-28T14:12:43.408Z,9.10
2022-08-28T14:15:47.405Z,10.38
2022-08-28T14:18:51.442Z,7.72
2022-08-28T14:21:54.107Z,7.78
2022-08-28T14:24:58.611Z,7.67
2022-08-28T14:28:01.262Z,8.20
2022-08-28T14:31:11.071Z,7.05
2022-08-28T14:34:19.560Z,7.68
2022-08-28T14:37:22.244Z,9.05
2022-08-28T14:40:26.252Z,9.27
2022-08-28T14:43:29.635Z,7.55
2022-08-28T14:46:36.618Z,6.30
2022-08-28T14:49:39.471Z,7.20
2022-08-28T14:52:42.233Z,6.75
2022-08-28T14:55:48.662Z,8.23
2022-08-28T14:58:51.400Z,10.27
2022-08-28T15:01:58.303Z,8.18
2022-08-28T15:05:01.031Z,6.63
2022-08-28T15:08:04.796Z,7.57
2022-08-28T15:11:13.221Z,6.47
2022-08-28T15:14:18.201Z,8.95
2022-08-28T15:17:20.976Z,7.57
2022-08-28T15:20:23.939Z,6.53
2022-08-28T15:23:26.575Z,6.97
2022-08-28T15:26:31.334Z,7.47
2022-08-28T15:29:33.966Z,7.70
2022-08-28T15:32:36.910Z,9.38
2022-08-28T15:35:39.703Z,10.93
2022-08-28T15:39:00.070Z,7.57
2022-08-28T15:42:05.480Z,7.80
2022-08-28T15:45:08.694Z,6.38
2022-08-28T15:48:12.118Z,7.93
2022-08-28T15:51:15.496Z,5.57
2022-08-28T15:54:18.740Z,6.45
2022-08-28T15:57:23.249Z,6.57
2022-08-28T16:00:25.945Z,6.70
2022-08-28T16:03:28.928Z,7.78
2022-08-28T16:06:32.009Z,9.57
2022-08-28T16:09:34.654Z,7.47
2022-08-28T16:12:39.595Z,6.23
2022-08-28T16:15:42.255Z,6.53
2022-08-28T16:18:45.714Z,7.65
2022-08-28T16:21:48.874Z,8.07
2022-08-28T16:24:52.122Z,7.05
2022-08-28T16:27:56.733Z,6.57
2022-08-28T16:30:59.415Z,7.05
2022-08-28T16:34:03.509Z,6.75
2022-08-28T16:37:07.947Z,5.68
2022-08-28T16:40:12.747Z,7.97
2022-08-28T16:43:19.159Z,6.97
2022-08-28T16:46:24.328Z,7.65
2022-08-28T16:49:27.366Z,9.38
2022-08-28T16:52:30.264Z,8.32
2022-08-28T16:55:34.077Z,6.62
2022-08-28T16:58:39.267Z,7.57
2022-08-28T17:01:42.604Z,6.22
2022-08-28T17:04:48.283Z,8.38
2022-08-28T17:07:51.954Z,8.07
2022-08-28T17:10:55.802Z,7.40
2022-08-28T17:14:00.409Z,6.87
2022-08-28T17:17:03.321Z,6.50
2022-08-28T17:20:08.209Z,6.63
2022-08-28T17:23:10.254Z,6.90
2022-08-28T17:26:14.668Z,6.38
2022-08-28T17:29:18.893Z,8.80
2022-08-28T17:32:22.452Z,6.88
2022-08-28T17:35:25.182Z,7.93
2022-08-28T17:38:28.102Z,6.15
2022-08-28T17:41:31.548Z,6.72
2022-08-28T17:44:36.957Z,6.20
2022-08-28T17:47:39.631Z,8.00
2022-08-28T17:50:42.489Z,8.77
2022-08-28T17:53:45.130Z,9.75
2022-08-28T17:56:48.317Z,7.45
2022-08-28T17:59:52.345Z,7.28
2022-08-28T18:02:55.048Z,7.13
2022-08-28T18:05:58.039Z,6.63
2022-08-28T18:09:01.126Z,5.72
2022-08-28T18:12:04.227Z,6.65
2022-08-28T18:15:12.521Z,6.07
2022-08-28T18:18:15.546Z,5.60
2022-08-28T18:21:18.354Z,7.97
2022-08-28T18:24:21.065Z,5.78
2022-08-28T18:27:26.457Z,6.93
2022-08-28T18:30:30.792Z,6.55
2022-08-28T18:33:34.319Z,8.87
2022-08-28T18:36:39.481Z,6.07
2022-08-28T18:39:42.322Z,6.90
2022-08-28T18:42:46.850Z,7.90
2022-08-28T18:45:51.820Z,6.45
2022-08-28T18:48:54.495Z,6.70
2022-08-28T18:51:57.245Z,6.03
2022-08-28T18:55:00.739Z,7.13
2022-08-28T18:58:13.265Z,6.95
2022-08-28T19:01:19.895Z,6.25
2022-08-28T19:04:23.652Z,6.80
2022-08-28T19:07:27.387Z,7.60
2022-08-28T19:10:34.988Z,12.43
2022-08-28T19:13:37.946Z,15.07
2022-08-28T19:16:42.177Z,13.43
2022-08-28T19:19:44.773Z,12.00
2022-08-28T19:22:48.921Z,10.80
2022-08-28T19:25:51.602Z,8.90
2022-08-28T19:28:55.309Z,7.78
2022-08-28T19:31:59.997Z,6.45
2022-08-28T19:35:03.504Z,6.43
2022-08-28T19:38:06.454Z,6.95
2022-08-28T19:41:10.323Z,6.95
2022-08-28T19:44:13.420Z,8.35
2022-08-28T19:47:17.410Z,8.27
2022-08-28T19:50:20.974Z,6.93
2022-08-28T19:53:23.595Z,6.78
2022-08-28T19:56:28.182Z,8.00
2022-08-28T19:59:31.003Z,8.38
2022-08-28T20:02:35.411Z,6.57
2022-08-28T20:05:38.185Z,6.57
2022-08-28T20:08:44.288Z,6.35
2022-08-28T20:11:47.082Z,6.88
2022-08-28T20:14:52.864Z,5.70
2022-08-28T20:17:57.747Z,4.88
2022-08-28T20:21:00.677Z,5.80
2022-08-28T20:24:03.622Z,5.50
2022-08-28T20:27:07.135Z,5.53
2022-08-28T20:30:11.021Z,5.88
2022-08-28T20:33:15.593Z,5.30
2022-08-28T20:36:21.096Z,5.77
2022-08-28T20:39:24.497Z,6.32
2022-08-28T20:42:31.699Z,6.43
2022-08-28T20:45:34.707Z,5.47
2022-08-28T20:48:39.099Z,5.78
2022-08-28T20:51:56.931Z,7.47
2022-08-28T20:54:59.677Z,7.80
2022-08-28T20:58:02.581Z,5.70
2022-08-28T21:01:05.814Z,5.68
2022-08-28T21:04:10.141Z,4.88
2022-08-28T21:07:14.029Z,5.73
2022-08-28T21:10:16.803Z,6.70
2022-08-28T21:13:19.570Z,6.03
2022-08-28T21:16:22.914Z,6.03
2022-08-28T21:19:28.541Z,6.00
2022-08-28T21:22:35.311Z,6.40
2022-08-28T21:25:41.484Z,5.32
2022-08-28T21:28:44.465Z,5.65
2022-08-28T21:31:48.586Z,6.38
2022-08-28T21:34:52.829Z,5.93
2022-08-28T21:37:55.476Z,7.83
2022-08-28T21:40:58.262Z,7.20
2022-08-28T21:44:01.146Z,6.72
2022-08-28T21:47:03.936Z,7.00
2022-08-28T21:50:10.800Z,7.60
2022-08-28T21:53:13.421Z,7.55
2022-08-28T21:56:20.156Z,6.67
2022-08-28T21:59:22.824Z,8.07
2022-08-28T22:02:28.602Z,7.68
2022-08-28T22:05:32.638Z,7.47
2022-08-28T22:08:37.168Z,7.40
2022-08-28T22:11:39.909Z,8.37
2022-08-28T22:14:42.536Z,7.13
2022-08-28T22:17:45.313Z,7.00
2022-08-28T22:21:06.969Z,6.38
2022-08-28T22:24:10.585Z,6.53
2022-08-28T22:27:14.426Z,7.50
2022-08-28T22:30:17.723Z,6.63
2022-08-28T22:33:20.505Z,7.35
2022-08-28T22:36:24.741Z,10.20
2022-08-28T22:39:32.067Z,7.90
2022-08-28T22:42:35.058Z,7.73
2022-08-28T22:45:41.313Z,7.05
2022-08-28T22:48:44.330Z,6.38
2022-08-28T22:51:49.164Z,6.88
2022-08-28T22:54:53.227Z,6.95
2022-08-28T22:57:55.982Z,7.30
2022-08-28T23:01:01.019Z,6.40
2022-08-28T23:04:04.160Z,6.85
2022-08-28T23:07:08.405Z,7.05
2022-08-28T23:10:12.506Z,6.82
2022-08-28T23:13:15.333Z,5.90
2022-08-28T23:16:23.817Z,6.57
2022-08-28T23:19:26.794Z,6.20
2022-08-28T23:22:34.459Z,7.18
2022-08-28T23:25:37.285Z,6.18
2022-08-28T23:28:40.432Z,6.20
2022-08-28T23:31:43.680Z,7.60
2022-08-28T23:34:46.481Z,5.57
2022-08-28T23:37:51.883Z,8.27
2022-08-28T23:40:55.169Z,6.25
2022-08-28T23:43:57.969Z,6.17
2022-08-28T23:47:00.789Z,6.03
2022-08-28T23:50:06.880Z,7.50
2022-08-28T23:53:11.538Z,6.70
2022-08-28T23:56:14.314Z,9.48
2022-08-28T23:59:17.193Z,7.47
